createdAt,value
2023-03-30T00:02:21.424Z,9.81
2023-03-30T00:05:06.963Z,9.80
2023-03-30T00:07:42.242Z,9.71
2023-03-30T00:10:16.904Z,9.77
2023-03-30T00:12:56.448Z,9.68
2023-03-30T00:15:28.273Z,9.57
2023-03-30T00:17:59.810Z,9.55
2023-03-30T00:20:33.281Z,9.58
2023-03-30T00:23:08.765Z,9.62
2023-03-30T00:25:45.040Z,9.60
2023-03-30T00:28:15.424Z,9.68
2023-03-30T00:30:44.010Z,9.69
2023-03-30T00:33:16.941Z,9.78
2023-03-30T00:35:48.207Z,9.76
2023-03-30T00:38:17.194Z,9.71
2023-03-30T00:40:53.357Z,9.72
2023-03-30T00:43:23.479Z,9.55
2023-03-30T00:45:53.655Z,9.42
2023-03-30T00:48:34.369Z,9.52
2023-03-30T00:51:18.804Z,9.50
2023-03-30T00:53:52.001Z,9.53
2023-03-30T00:56:27.552Z,9.61
2023-03-30T00:59:00.388Z,9.49
2023-03-30T01:04:25.478Z,9.69
2023-03-30T01:07:00.724Z,9.60
2023-03-30T01:09:32.949Z,9.66
2023-03-30T01:12:08.257Z,9.67
2023-03-30T01:14:48.536Z,9.57
2023-03-30T01:18:03.986Z,9.68
2023-03-30T01:24:19.321Z,9.70
2023-03-30T01:27:02.255Z,9.70
2023-03-30T01:29:48.055Z,9.67
2023-03-30T01:32:31.050Z,9.67
2023-03-30T01:35:49.940Z,9.69
2023-03-30T01:38:54.729Z,9.70
2023-03-30T01:41:59.136Z,9.70
2023-03-30T01:45:05.476Z,9.73
2023-03-30T01:48:20.225Z,9.73
2023-03-30T01:51:01.529Z,9.73
2023-03-30T01:53:46.274Z,9.42
2023-03-30T01:56:43.151Z,9.57
2023-03-30T01:59:19.586Z,9.62
2023-03-30T02:02:09.466Z,9.56
2023-03-30T02:04:44.213Z,9.53
2023-03-30T02:07:23.675Z,9.49
2023-03-30T02:09:58.621Z,9.43
2023-03-30T02:12:44.824Z,9.25
2023-03-30T02:15:19.941Z,9.33
2023-03-30T02:17:51.267Z,9.38
2023-03-30T02:20:22.022Z,9.38
2023-03-30T02:22:56.548Z,9.44
2023-03-30T02:25:30.745Z,9.35
2023-03-30T02:30:45.361Z,8.88
2023-03-30T02:33:47.613Z,8.97
2023-03-30T02:36:40.133Z,9.08
2023-03-30T02:39:31.315Z,9.22
2023-03-30T02:42:52.150Z,9.00
2023-03-30T02:45:55.143Z,8.81
2023-03-30T02:48:47.861Z,8.75
2023-03-30T02:51:52.229Z,8.97
2023-03-30T02:54:46.006Z,9.02
2023-03-30T02:58:30.931Z,8.87
2023-03-30T03:01:39.354Z,9.15
2023-03-30T03:04:32.050Z,9.06
2023-03-30T03:07:18.460Z,9.10
2023-03-30T03:09:52.200Z,9.08
2023-03-30T03:12:27.857Z,9.08
2023-03-30T03:15:04.397Z,9.08
2023-03-30T03:17:43.443Z,8.93
2023-03-30T03:20:18.404Z,8.97
2023-03-30T03:22:48.435Z,9.08
2023-03-30T03:25:19.417Z,9.01
2023-03-30T03:27:59.485Z,8.79
2023-03-30T03:30:34.976Z,8.92
2023-03-30T03:33:13.515Z,8.97
2023-03-30T03:36:03.089Z,9.04
2023-03-30T03:38:37.169Z,8.98
2023-03-30T03:41:13.446Z,9.07
2023-03-30T03:46:35.199Z,9.05
2023-03-30T03:49:06.663Z,9.03
2023-03-30T03:51:38.318Z,9.08
2023-03-30T03:54:09.763Z,9.07
2023-03-30T03:59:24.534Z,9.10
2023-03-30T04:02:07.817Z,9.20
2023-03-30T04:04:39.056Z,9.16
2023-03-30T04:07:09.960Z,9.11
2023-03-30T04:09:39.536Z,9.13
2023-03-30T04:12:25.116Z,9.11
2023-03-30T04:15:34.566Z,9.14
2023-03-30T04:18:39.248Z,9.17
2023-03-30T04:21:51.692Z,9.10
2023-03-30T04:24:55.595Z,9.22
2023-03-30T04:27:50.443Z,9.24
2023-03-30T04:30:46.268Z,9.23
2023-03-30T04:33:47.483Z,9.30
2023-03-30T04:36:40.878Z,9.25
2023-03-30T04:39:52.960Z,9.15
2023-03-30T04:42:53.290Z,9.19
2023-03-30T04:45:52.390Z,9.26
2023-03-30T04:48:38.817Z,9.25
2023-03-30T04:51:40.588Z,9.22
2023-03-30T04:54:33.232Z,9.15
2023-03-30T04:57:45.712Z,9.22
2023-03-30T05:00:44.454Z,9.20
2023-03-30T05:03:52.324Z,9.25
2023-03-30T05:06:54.019Z,9.24
2023-03-30T05:09:48.109Z,9.24
2023-03-30T05:12:47.141Z,9.28
2023-03-30T05:15:49.134Z,9.26
2023-03-30T05:18:39.957Z,8.85
2023-03-30T05:21:30.024Z,9.36
2023-03-30T05:24:22.886Z,9.29
2023-03-30T05:27:07.285Z,9.35
2023-03-30T05:30:01.829Z,9.34
2023-03-30T05:33:01.434Z,9.33
2023-03-30T05:35:54.121Z,9.39
2023-03-30T05:39:04.683Z,9.41
2023-03-30T05:42:03.618Z,9.50
2023-03-30T05:44:56.250Z,9.38
2023-03-30T05:48:03.830Z,9.34
2023-03-30T05:50:52.369Z,9.27
2023-03-30T05:56:44.227Z,9.57
2023-03-30T05:59:44.936Z,9.68
2023-03-30T06:02:44.597Z,9.59
2023-03-30T06:05:22.885Z,9.60
2023-03-30T06:08:08.890Z,9.74
2023-03-30T06:10:44.131Z,9.75
2023-03-30T06:13:15.734Z,9.90
2023-03-30T06:15:55.213Z,9.98
2023-03-30T06:18:30.066Z,10.04
2023-03-30T06:21:14.106Z,10.13
2023-03-30T06:24:03.563Z,10.11
2023-03-30T06:26:35.635Z,10.16
2023-03-30T06:29:15.610Z,10.27
2023-03-30T06:31:47.897Z,10.22
2023-03-30T06:34:52.456Z,10.34
2023-03-30T06:37:40.116Z,10.31
2023-03-30T06:40:17.841Z,10.44
2023-03-30T06:42:51.548Z,10.58
2023-03-30T06:45:45.476Z,10.56
2023-03-30T06:48:16.225Z,10.67
2023-03-30T06:50:47.685Z,10.63
2023-03-30T06:53:28.322Z,10.72
2023-03-30T06:56:02.189Z,10.71
2023-03-30T06:58:34.935Z,10.70
2023-03-30T07:01:20.284Z,10.72
2023-03-30T07:04:20.877Z,10.79
2023-03-30T07:07:14.147Z,10.75
2023-03-30T07:09:46.873Z,10.78
2023-03-30T07:12:21.725Z,10.76
2023-03-30T07:14:56.270Z,10.84
2023-03-30T07:17:31.019Z,10.89
2023-03-30T07:20:04.771Z,11.11
2023-03-30T07:22:44.929Z,11.23
2023-03-30T07:25:19.275Z,11.22
2023-03-30T07:28:00.983Z,11.31
2023-03-30T07:30:31.548Z,11.47
2023-03-30T07:33:11.933Z,11.48
2023-03-30T07:35:52.698Z,11.38
2023-03-30T07:38:32.497Z,11.42
2023-03-30T07:41:01.179Z,11.41
2023-03-30T07:43:37.198Z,11.60
2023-03-30T07:46:10.683Z,11.56
2023-03-30T07:48:43.290Z,11.64
2023-03-30T07:51:16.959Z,11.59
2023-03-30T07:53:57.232Z,11.48
2023-03-30T07:59:20.083Z,11.71
2023-03-30T08:01:52.282Z,11.77
2023-03-30T08:04:50.911Z,12.00
2023-03-30T08:07:31.095Z,12.07
2023-03-30T08:10:23.742Z,12.10
2023-03-30T08:12:56.107Z,12.18
2023-03-30T08:15:27.779Z,12.20
2023-03-30T08:18:03.768Z,12.11
2023-03-30T08:20:46.027Z,12.20
2023-03-30T08:23:17.363Z,12.30
2023-03-30T08:25:53.767Z,12.22
2023-03-30T08:28:29.770Z,12.35
2023-03-30T08:31:16.247Z,12.54
2023-03-30T08:33:50.918Z,12.89
2023-03-30T08:36:26.205Z,12.90
2023-03-30T08:39:12.729Z,12.81
2023-03-30T08:42:03.938Z,12.73
2023-03-30T08:44:42.998Z,12.64
2023-03-30T08:47:18.220Z,12.40
2023-03-30T08:50:38.968Z,12.49
2023-03-30T08:53:12.363Z,12.69
2023-03-30T08:55:53.458Z,12.64
2023-03-30T08:59:03.787Z,12.69
2023-03-30T09:02:03.274Z,12.62
2023-03-30T09:04:57.915Z,12.56
2023-03-30T09:08:10.803Z,12.60
2023-03-30T09:10:44.938Z,12.51
2023-03-30T09:13:22.101Z,12.58
2023-03-30T09:16:19.515Z,12.57
2023-03-30T09:18:58.800Z,12.42
2023-03-30T09:21:32.727Z,12.46
2023-03-30T09:24:09.607Z,12.50
2023-03-30T09:27:02.237Z,12.78
2023-03-30T09:29:43.959Z,12.74
2023-03-30T09:32:33.721Z,12.67
2023-03-30T09:35:33.651Z,12.67
2023-03-30T09:38:15.112Z,12.63
2023-03-30T09:41:30.688Z,12.76
2023-03-30T09:44:09.247Z,12.70
2023-03-30T09:46:40.541Z,12.82
2023-03-30T09:49:19.306Z,12.89
2023-03-30T09:52:09.921Z,13.24
2023-03-30T09:54:41.914Z,13.43
2023-03-30T09:57:38.611Z,13.04
2023-03-30T10:00:34.350Z,13.04
2023-03-30T10:03:10.342Z,13.33
2023-03-30T10:05:41.508Z,13.29
2023-03-30T10:08:25.024Z,13.46
2023-03-30T10:10:59.694Z,13.45
2023-03-30T10:13:40.449Z,13.27
2023-03-30T10:16:13.888Z,13.12
2023-03-30T10:18:48.902Z,13.08
2023-03-30T10:21:30.901Z,12.98
2023-03-30T10:24:46.822Z,13.05
2023-03-30T10:27:16.560Z,12.92
2023-03-30T10:30:12.929Z,12.96
2023-03-30T10:32:51.132Z,12.85
2023-03-30T10:35:23.612Z,12.84
2023-03-30T10:37:58.802Z,12.90
2023-03-30T10:40:48.097Z,12.93
2023-03-30T10:43:27.562Z,12.73
2023-03-30T10:46:18.713Z,12.74
2023-03-30T10:49:15.115Z,12.70
2023-03-30T10:52:28.506Z,12.74
2023-03-30T10:55:14.537Z,12.61
2023-03-30T10:58:29.958Z,12.67
2023-03-30T11:01:23.398Z,12.66
2023-03-30T11:04:06.611Z,12.59
2023-03-30T11:06:55.616Z,12.60
2023-03-30T11:09:45.542Z,12.37
2023-03-30T11:12:22.888Z,12.56
2023-03-30T11:15:00.587Z,12.64
2023-03-30T11:17:51.497Z,12.69
2023-03-30T11:20:34.158Z,12.73
2023-03-30T11:23:20.893Z,12.66
2023-03-30T11:26:09.876Z,12.60
2023-03-30T11:29:32.353Z,12.58
2023-03-30T11:32:36.805Z,12.55
2023-03-30T11:35:48.757Z,12.54
2023-03-30T11:38:55.892Z,12.52
2023-03-30T11:42:18.481Z,12.51
2023-03-30T11:44:48.757Z,12.56
2023-03-30T11:47:55.230Z,12.50
2023-03-30T11:51:28.712Z,12.49
2023-03-30T11:54:39.062Z,12.50
2023-03-30T11:57:28.354Z,12.47
2023-03-30T12:00:28.922Z,12.55
2023-03-30T12:03:26.069Z,12.55
2023-03-30T12:06:32.189Z,12.59
2023-03-30T12:09:38.840Z,12.60
2023-03-30T12:12:21.432Z,12.60
2023-03-30T12:15:01.722Z,12.53
2023-03-30T12:18:00.809Z,12.59
2023-03-30T12:21:04.729Z,12.55
2023-03-30T12:23:58.994Z,12.51
2023-03-30T12:26:39.070Z,12.43
2023-03-30T12:32:02.031Z,12.60
2023-03-30T12:34:39.333Z,12.59
2023-03-30T12:37:33.789Z,12.60
2023-03-30T12:40:33.586Z,12.68
2023-03-30T12:43:34.156Z,12.56
2023-03-30T12:46:28.652Z,12.65
2023-03-30T12:53:11.101Z,12.58
2023-03-30T12:55:44.266Z,12.57
2023-03-30T12:58:52.435Z,12.56
2023-03-30T13:02:09.928Z,12.50
2023-03-30T13:04:49.423Z,12.50
2023-03-30T13:07:31.134Z,12.47
2023-03-30T13:10:40.747Z,12.40
2023-03-30T13:13:20.320Z,12.28
2023-03-30T13:16:00.259Z,12.11
2023-03-30T13:18:42.418Z,12.11
2023-03-30T13:21:28.966Z,12.20
2023-03-30T13:24:10.306Z,12.30
2023-03-30T13:26:51.930Z,12.16
2023-03-30T13:29:20.532Z,12.21
2023-03-30T13:32:24.259Z,12.10
2023-03-30T13:38:37.822Z,12.12
2023-03-30T13:41:41.426Z,12.11
2023-03-30T13:44:59.436Z,12.08
2023-03-30T13:47:28.369Z,12.16
2023-03-30T13:50:29.868Z,12.01
2023-03-30T13:53:02.723Z,12.10
2023-03-30T13:55:47.693Z,12.12
2023-03-30T13:58:35.642Z,12.09
2023-03-30T14:01:25.741Z,12.14
2023-03-30T14:04:01.064Z,12.14
2023-03-30T14:06:44.728Z,12.14
2023-03-30T14:09:16.046Z,12.17
2023-03-30T14:11:56.387Z,12.17
2023-03-30T14:14:45.162Z,12.14
2023-03-30T14:17:28.384Z,12.17
2023-03-30T14:20:25.811Z,12.16
2023-03-30T14:23:03.671Z,12.18
2023-03-30T14:25:43.544Z,12.19
2023-03-30T14:28:33.793Z,12.20
2023-03-30T14:31:17.342Z,12.12
2023-03-30T14:33:49.310Z,12.16
2023-03-30T14:36:23.770Z,12.13
2023-03-30T14:39:01.675Z,12.14
2023-03-30T14:41:41.239Z,12.33
2023-03-30T14:44:16.076Z,12.24
2023-03-30T14:46:51.900Z,12.27
2023-03-30T14:49:43.523Z,12.28
2023-03-30T14:52:30.817Z,12.23
2023-03-30T14:55:10.517Z,12.25
2023-03-30T14:57:50.347Z,12.27
2023-03-30T15:00:26.034Z,12.29
2023-03-30T15:03:26.711Z,12.16
2023-03-30T15:06:10.203Z,12.29
2023-03-30T15:08:41.243Z,12.24
2023-03-30T15:11:24.373Z,12.29
2023-03-30T15:14:22.743Z,12.29
2023-03-30T15:17:13.107Z,12.32
2023-03-30T15:19:50.561Z,12.30
2023-03-30T15:22:42.801Z,12.22
2023-03-30T15:25:20.386Z,12.29
2023-03-30T15:27:56.830Z,12.13
2023-03-30T15:30:48.705Z,12.28
2023-03-30T15:33:25.282Z,12.30
2023-03-30T15:35:56.793Z,12.30
2023-03-30T15:38:50.258Z,12.27
2023-03-30T15:42:03.907Z,12.23
2023-03-30T15:44:44.840Z,12.20
2023-03-30T15:47:21.785Z,12.23
2023-03-30T15:49:57.346Z,12.25
2023-03-30T15:52:36.015Z,12.16
2023-03-30T15:55:30.876Z,12.27
2023-03-30T15:58:06.283Z,12.28
2023-03-30T16:00:41.259Z,12.31
2023-03-30T16:04:03.937Z,12.28
2023-03-30T16:06:36.556Z,12.29
2023-03-30T16:09:09.153Z,12.17
2023-03-30T16:11:41.193Z,12.27
2023-03-30T16:14:13.482Z,12.27
2023-03-30T16:16:46.496Z,12.32
2023-03-30T16:19:27.513Z,12.23
2023-03-30T16:22:03.280Z,12.29
2023-03-30T16:24:42.382Z,12.20
2023-03-30T16:27:14.182Z,12.23
2023-03-30T16:29:45.628Z,12.20
2023-03-30T16:32:18.775Z,12.12
2023-03-30T16:34:51.190Z,12.13
2023-03-30T16:37:24.804Z,12.07
2023-03-30T16:39:53.552Z,12.10
2023-03-30T16:42:30.286Z,12.06
2023-03-30T16:45:15.337Z,12.09
2023-03-30T16:47:44.233Z,12.10
2023-03-30T16:50:54.848Z,11.98
2023-03-30T16:53:33.065Z,11.76
2023-03-30T16:56:06.523Z,11.84
2023-03-30T16:58:39.953Z,11.94
2023-03-30T17:01:16.028Z,11.91
2023-03-30T17:03:46.261Z,11.75
2023-03-30T17:06:17.043Z,11.89
2023-03-30T17:08:47.882Z,11.88
2023-03-30T17:11:19.465Z,11.90
2023-03-30T17:13:49.963Z,11.87
2023-03-30T17:16:28.393Z,11.83
2023-03-30T17:19:01.310Z,11.84
2023-03-30T17:21:34.911Z,11.78
2023-03-30T17:24:11.823Z,11.54
2023-03-30T17:26:40.644Z,11.78
2023-03-30T17:29:20.489Z,11.81
2023-03-30T17:31:54.295Z,11.78
2023-03-30T17:34:24.361Z,11.78
2023-03-30T17:37:05.509Z,11.69
2023-03-30T17:39:38.269Z,11.59
2023-03-30T17:42:10.841Z,11.74
2023-03-30T17:44:54.855Z,11.74
2023-03-30T17:47:30.563Z,11.75
2023-03-30T17:50:02.574Z,11.69
2023-03-30T17:52:32.172Z,11.70
2023-03-30T17:55:06.748Z,11.70
2023-03-30T17:57:41.869Z,11.64
2023-03-30T18:00:49.924Z,11.72
2023-03-30T18:03:30.978Z,11.72
2023-03-30T18:06:14.029Z,11.71
2023-03-30T18:08:57.339Z,11.38
2023-03-30T18:11:31.022Z,11.73
2023-03-30T18:14:07.744Z,11.72
2023-03-30T18:16:50.022Z,11.73
2023-03-30T18:19:29.223Z,11.70
2023-03-30T18:21:59.588Z,11.68
2023-03-30T18:24:33.972Z,11.59
2023-03-30T18:27:06.849Z,11.62
2023-03-30T18:29:45.734Z,11.33
2023-03-30T18:32:16.790Z,11.73
2023-03-30T18:34:48.331Z,11.71
2023-03-30T18:37:19.422Z,11.66
2023-03-30T18:39:53.053Z,11.71
2023-03-30T18:42:24.304Z,11.72
2023-03-30T18:45:03.019Z,11.76
2023-03-30T18:47:36.213Z,11.77
2023-03-30T18:50:26.916Z,11.64
2023-03-30T18:52:57.656Z,11.77
2023-03-30T18:55:37.784Z,11.81
2023-03-30T18:58:20.114Z,11.79
2023-03-30T19:00:59.400Z,11.80
2023-03-30T19:03:33.923Z,11.78
2023-03-30T19:06:05.304Z,11.82
2023-03-30T19:08:35.837Z,11.83
2023-03-30T19:11:09.926Z,11.85
2023-03-30T19:13:38.069Z,11.78
2023-03-30T19:16:10.882Z,11.78
2023-03-30T19:18:47.449Z,11.77
2023-03-30T19:21:21.055Z,11.71
2023-03-30T19:23:51.643Z,11.71
2023-03-30T19:26:28.590Z,11.71
2023-03-30T19:31:55.010Z,11.67
2023-03-30T19:37:08.882Z,11.48
2023-03-30T19:39:45.938Z,11.44
2023-03-30T19:42:19.762Z,11.38
2023-03-30T19:44:50.679Z,11.34
2023-03-30T19:47:23.679Z,11.26
2023-03-30T19:50:03.365Z,11.40
2023-03-30T19:52:36.355Z,11.34
2023-03-30T19:55:09.120Z,11.51
2023-03-30T19:57:40.319Z,11.58
2023-03-30T20:00:15.762Z,11.65
2023-03-30T20:02:53.487Z,11.60
2023-03-30T20:05:24.302Z,11.50
2023-03-30T20:07:56.032Z,11.49
2023-03-30T20:10:28.222Z,11.45
2023-03-30T20:13:03.379Z,11.53
2023-03-30T20:15:49.585Z,11.59
2023-03-30T20:21:18.175Z,11.53
2023-03-30T20:23:49.877Z,11.58
2023-03-30T20:26:23.387Z,11.48
2023-03-30T20:29:03.737Z,11.42
2023-03-30T20:31:39.918Z,11.49
2023-03-30T20:34:15.502Z,11.42
2023-03-30T20:36:52.404Z,11.49
2023-03-30T20:39:27.575Z,11.50
2023-03-30T20:42:00.852Z,11.48
2023-03-30T20:44:39.643Z,11.39
2023-03-30T20:47:11.037Z,11.40
2023-03-30T20:49:43.737Z,11.37
2023-03-30T20:52:22.834Z,11.31
2023-03-30T20:54:53.527Z,11.24
2023-03-30T20:57:24.527Z,11.20
2023-03-30T21:00:01.416Z,11.12
2023-03-30T21:05:17.684Z,11.11
2023-03-30T21:07:52.140Z,11.10
2023-03-30T21:10:20.378Z,11.10
2023-03-30T21:12:51.441Z,11.07
2023-03-30T21:15:30.353Z,11.10
2023-03-30T21:18:07.813Z,11.23
2023-03-30T21:20:43.920Z,11.12
2023-03-30T21:23:29.199Z,11.26
2023-03-30T21:26:06.214Z,11.32
2023-03-30T21:28:45.023Z,11.36
2023-03-30T21:31:24.692Z,11.33
2023-03-30T21:34:01.518Z,11.35
2023-03-30T21:36:35.527Z,11.35
2023-03-30T21:39:17.228Z,11.39
2023-03-30T21:41:54.023Z,11.31
2023-03-30T21:44:22.173Z,11.18
2023-03-30T21:46:53.696Z,11.23
2023-03-30T21:49:23.783Z,11.32
2023-03-30T21:51:54.509Z,11.31
2023-03-30T21:54:41.533Z,11.29
2023-03-30T21:57:15.695Z,11.29
2023-03-30T21:59:49.608Z,11.13
2023-03-30T22:02:20.738Z,11.25
2023-03-30T22:04:52.787Z,11.28
2023-03-30T22:07:21.750Z,11.25
2023-03-30T22:09:55.105Z,11.25
2023-03-30T22:12:25.922Z,11.27
2023-03-30T22:14:55.240Z,11.22
2023-03-30T22:17:43.756Z,11.27
2023-03-30T22:20:28.312Z,11.18
2023-03-30T22:22:59.313Z,11.28
2023-03-30T22:28:24.313Z,11.27
2023-03-30T22:31:08.264Z,11.22
2023-03-30T22:33:36.562Z,11.13
2023-03-30T22:36:33.572Z,11.28
2023-03-30T22:39:10.696Z,11.22
2023-03-30T22:41:41.915Z,11.14
2023-03-30T22:44:13.041Z,11.00
2023-03-30T22:46:46.966Z,11.18
2023-03-30T22:49:26.901Z,11.14
2023-03-30T22:52:08.032Z,11.09
2023-03-30T22:54:47.838Z,11.13
2023-03-30T22:57:19.024Z,10.74
2023-03-30T22:59:49.604Z,11.10
2023-03-30T23:05:06.049Z,10.79
2023-03-30T23:07:40.228Z,11.01
2023-03-30T23:10:13.379Z,11.10
2023-03-30T23:12:59.594Z,11.06
2023-03-30T23:15:30.342Z,11.00
2023-03-30T23:18:01.108Z,11.10
2023-03-30T23:20:31.141Z,11.03
2023-03-30T23:23:04.422Z,10.89
2023-03-30T23:25:41.929Z,10.94
2023-03-30T23:28:13.660Z,10.94
2023-03-30T23:30:44.861Z,10.89
2023-03-30T23:36:00.642Z,10.82
2023-03-30T23:38:33.181Z,10.83
2023-03-30T23:41:04.601Z,10.84
2023-03-30T23:43:52.224Z,10.82
2023-03-30T23:46:29.941Z,10.73
2023-03-30T23:49:06.402Z,10.60
2023-03-30T23:51:40.003Z,10.73
2023-03-30T23:54:10.738Z,10.70
2023-03-30T23:56:50.531Z,10.77
2023-03-30T23:59:24.512Z,10.69
